Terminal Aerodrome Forecast
Issued by NWS Upton, NY

Home | Current Version | Previous Version | Text Only | Print | Product List | Glossary On
Versions: 1 2 3 4 5 6 7 8 9 10 11 12 13 14 15 16 17 18 19 20 21 22 23 24 25 26 27 28 29 30 31 32 33 34 35 36 37 38 39 40 41 42 43
752
FTUS41 KOKX 240848 CCA
TAFEWR
TAF COR
KEWR 240848Z 2409/2512 23007KT 4SM SHRA BR BKN025 OVC040
      TEMPO 2410/2413 29017G35KT 2SM TSRA BR BKN012CB OVC020
     FM241300 27012KT P6SM SCT050
     FM241500 30013G19KT P6SM SCT050
     FM242300 28012KT P6SM FEW050
     FM250900 30004KT P6SM SCT070=

USA.gov is the U.S. government's official web portal to all federal, state and local government web resources and services.